Terminal Aerodrome Forecast
Issued by NWS

Home | Current Version | Previous Version | Text Only | Print | Product List | Glossary On
Versions: 1 2 3 4 5 6 7 8 9 10 11 12 13 14 15 16 17 18 19 20
255
FTUS44 KLIX 231735
TAFGPT
TAF
KGPT 231735Z 2318/2418 28009KT P6SM SCT025 BKN040
     FM240000 28007KT P6SM SCT080
     FM240600 28006KT P6SM SCT020 BKN060 PROB30 2410/2414 4SM TSRA
      OVC020CB
     FM241500 30010KT P6SM SCT020 BKN040=

USA.gov is the U.S. government's official web portal to all federal, state and local government web resources and services.